Lenapah, Oklahoma
Current Conditions -  °F | °C
As of 9:11 PM on Friday 19 Dec 2014 (Local Time) from KCFV Reporting Station
Haze Haze  
Wind Chill: 32°   Ceiling: 200
Heat Index: 36°   Visibility: 0.75mi
Dew Point: 36°   Wind: 5mph
Humidity: 100%   Direction: 310°NW
Pressure: 30.22"   Gusts: NA
Location:  36.85°N, 95.64°W
Report Text: KCFV 200311Z AUTO 31004KT 3/4SM BR VV002 02/02 A3022 RMK AO2 T00220022
Loading
Personal Weather Stations






























Interactive Weather Map New forecast layout! Learn more

10-Day Weather Forecast

Advertisements
Track Severe Weather on mobile